This site, now in its 15th season, is a labour of love and fun from one of Ottawa's most avid time trialists and number crunchers. It adheres to and is permitted by the laws of Canada, promotes the objectives of every bicycle club whose results are shown, and is donated free of charge by myself for your enjoyment and usage. If you would like results from series you ride in to be shown here, give me (celia@drmath.ca) a shout!


Index Page
ATT OTT WTT AATT CFCTT VVVTT
Help resultformat:
Case-sensitive

OBC Open TT Series - 1993-Aug-12 - 15km (Rockliffe Pkwy) (EvtFactor = 0.9653)

Weather (18:00): Mainly Clear. Temp.: 26.8C, Humidity: 58%, DewPoint: 17.7C, Wind: WNW 6km/h, Pressure: 100.07kPa, Visibility: 16.1km, Humidex: 33.
Weather (19:00): Mainly Clear. Temp.: 26.3C, Humidity: 58%, DewPoint: 17.4C, Wind: W 9km/h, Pressure: 100.07kPa, Visibility: 16.1km, Humidex: 32.
Weather (20:00): Mainly Clear. Temp.: 25.4C, Humidity: 60%, DewPoint: 17.0C, Wind: 0km/h, Pressure: 100.10kPa, Visibility: 19.3km, Humidex: 31.

Send photos with description (when/where/what) of yourself on or off of bike to celia@drmath.ca

 
 

BESTS?
 
1 Westwood, Chris --- 20:02 44.925 1/66 OSEM 1/24 0.9630
2 Guenette, Jean-Yves OBC 20:19 44.299 2/66 OVAM 1/16 1.0939
3 Rendall, Glen  --- 20:25 44.082 3/66 OSEM 2/24  
4 Georgas, Chris OBC 20:32 43.831 4/66 OVBM 1/13 0.9758
5 Simpson, Bob OBC 20:35 43.725 5/66 OVBM 2/13 1.0295
6 Aller, Brian OBC 20:45 43.373 6/66 OVAM 2/16 1.0000
7 Griffiths, Chris OBC 20:57 42.959 7/66 OVBM 3/13 1.0583
Morewood, Arthur OBC 20:57 42.959 7/66 OVBM 3/13 1.0411
9 Stephenson, Jamie OBC 20:59 42.891 9/66 OSEM 3/24 0.9834
10 Fraser, Ian OBC 21:03 42.755 10/66 OSEM 4/24 0.9169
Varcoe, Robert --- 21:03 42.755 10/66 OVAM 3/16 1.0730
12 MacDonald, Ryan OBC 21:07 42.620 12/66 OSEM 5/24 1.0143
13 Boudreau, Marc --- 21:19 42.220 13/66 OSEM 6/24 1.0549
Martignago, Mike OBC 21:19 42.220 13/66 OSEM 6/24 1.0141
Statchuk, Craig OBC 21:19 42.220 13/66 OVAM 4/16 0.9561
16 Buffa, Alex  OBC 21:25 42.023 16/66 OSEM 8/24 1.0282
17 Moerman, Bram  OBC 21:29 41.893 17/66 OVBM 5/13 0.9542
18 St-Amour, Pierre OBC 21:32 41.796 18/66 OVAM 5/16 0.9298
19 Reinisch, Stephen OBC 21:33 41.763 19/66 OSEM 9/24 0.9861
20 Fairhead, Denis OBC 21:34 41.731 20/66 OVAM 6/16 0.9977
21 Bence, John OBC 21:38 41.602 21/66 OSEM 10/24 1.0685
22 Munro, Scott --- 21:45 41.379 22/66 OVAM 7/16  
Y 23 Jensen, Prapti OBC 21:48 41.284 23/66 OSEF 1/3 1.0231
24 Mahoney, Keith OBC 22:04 40.785 24/66 OSEM 11/24 1.1200
25 Glover, Jim  --- 22:06 40.724 25/66 OVAM 8/16  
26 Hollywood, Brandon OBC 22:17 40.389 26/66 OSEM 12/24 1.0432
27 Walton, Gail OBC 22:23 40.208 27/66 OVAF 1/4  
28 Montpetit, Stephane OBC 22:25 40.149 28/66 OSEM 13/24 0.9934
29 Beasley, Graham --- 22:34 39.882 29/66 OVBM 6/13 1.0000
30 Moore, Mike --- 22:35 39.852 30/66 OSEM 14/24 0.9350
31 Bachman, Mike --- 22:39 39.735 31/66 OVBM 7/13 0.9630
32 Padilla, Alberto --- 22:40 39.706 32/66 OVAM 9/16 1.0885
33 Paterson, Gail OBC 22:41 39.677 33/66 OSEF 2/3 1.0223
34 Callahan, Luc OBC 22:46 39.531 34/66 OSEM 15/24 1.0110
35 St-Cyr, Michel --- 22:51 39.387 35/66 OSEM 16/24 1.1953
36 Le Grand, Gregory OBC 22:53 39.330 36/66 OVBM 8/13 1.0466
37 Humphreys, Les  OBC/ABC 22:59 39.159 37/66 OVBM 9/13 0.9892
Pritlove, James OBC 22:59 39.159 37/66 OSEM 17/24 1.0131
39 Austen, Ian  OBC 23:01 39.102 39/66 OVAM 10/16 1.0419
Norton, Alan --- 23:01 39.102 39/66 OSEM 18/24 1.0734
41 Boileau, Greg OBC 23:30 38.298 41/66 OJUM 1/2 0.9705
Leroux & Leroux --- 23:30 38.298 41/66 TTT 1/1  
43 Anderson, Allan OBC 23:33 38.217 43/66 OVAM 11/16 1.0387
44 Thériault, Louis OBC 23:40 38.028 44/66 OSEM 19/24 0.8747
45 Montemurro, Mike --- 23:43 37.948 45/66 OSEM 20/24 0.9687
46 McDaniels, Karim OBC 23:46 37.868 46/66 OSEM 21/24 1.2448
47 Hollywood, Rudy OBC 23:48 37.815 47/66 OVBM 10/13 1.1291
48 Barber, Brian OBC 23:55 37.631 48/66 OSEM 22/24 1.0403
49 Moxley, Don OBC 24:02 37.448 49/66 OVBM 11/13 0.9549
50 Hicks, Terry OBC 24:08 37.293 50/66 OVAM 12/16 0.9214
51 Paterson, Mary OBC 24:16 37.088 51/66 OSEF 3/3 1.1902
52 Hope, Walter --- 24:17 37.062 52/66 OVAM 13/16 1.0269
53 Stewart, Rob --- 24:24 36.885 53/66 OVAM 14/16 1.0458
54 Davison, Peter OBC 24:34 36.635 54/66 OVBM 12/13 1.0730
55 McInnis, Celia  OBC 24:41 36.462 55/66 OVAF 2/4 1.0163
Y 56 Ajersch, Mary  OBC 24:44 36.388 56/66 OVBF 1/2 1.0348
57 Smart, Eric OBC 25:05 35.880 57/66 OVCM 1/1 1.1201
58 Chen, Jonathan --- 25:28 35.340 58/66 OSEM 23/24 0.6564
FitzGerald, Dennis --- 25:28 35.340 58/66 OVBM 13/13  
60 Coleman, Dave --- 25:40 35.065 60/66 OSEM 24/24  
61 Montserrat, Fabienne OBC 26:40 33.750 61/66 OVAF 3/4 0.9850
62 Cole, Warren OBC 26:42 33.708 62/66 OVAM 15/16 0.9667
Fortey, Brian OBC 26:42 33.708 62/66 OJUM 2/2 1.0709
64 Gerber, Rosmarie OBC 26:53 33.478 64/66 OVBF 2/2  
65 James, Peter OBC 29:34 30.440 65/66 OVAM 16/16 0.6542
66 Dietiker-Davison, Judy --- 30:56 29.095 66/66 OVAF 4/4  
 
Average Speed of all of the above 66 finishes (990km in 25:23:58):38.977
>>>Average of the Average Speeds for these 66 finishes39.278<<<
 

The number of data records shown above is 66
The server processing of your query took: 0 wallclock secs ( 0.13 usr + 0.00 sys = 0.13 CPU)

Thanks to our Helpers: Don Tamborine, Roger Carrol, Neil Redding, Ken Murray.

     


Apr 9 (Good Friday) Apr 15 Apr 22 (cancelled) Apr 27 Apr 29
May 4 (10km) May 6 May 11 May 11 (10km) May 13 (22km) May 16 (40km) May 18 May 18 (10km) May 20 May 25 May 25 (10km) May 27 (38km) May 30 (40km)
Jun 1 Jun 3 Jun 8 Jun 10 (22km) Jun 15 Jun 17 Jun 22 Jun 22 Jun 24 (38km) Jun 25 Jun 27 (40km/80km) Jun 29 Jun 29 Jun 30
Jul 6 Jul 6 Jul 8 Jul 13 Jul 13 Jul 15 (38km) Jul 20 Jul 20 Jul 22 Jul 25 (80km) Jul 27 Jul 29 (22km)
Aug 3 Aug 3 Aug 5 Aug 7 (38km) Aug 10 Aug 10
  Aug 12  
Aug 15 (40km/80km) Aug 17 Aug 19 Aug 21 (22km) Aug 24 Aug 24 Aug 26 Aug 29 (40km) Aug 31 (Invitational)
Sep 2 Sep 7 Sep 9 Sep 14 Sep 16 Sep 25 (40km)

OTT Rankings
Best       Best by category
WTT Rankings for OBC Members
5 Best 15km     5 Best 15km by category
OBC Member Best Three 15km Rankings
Overall     by category
OBC BAR Ranking
Overall     by category     Rider "Consistency-Graph"
ABC BAR Ranking
Overall     by category     Rider "Consistency-Graph"
Other years
TT Calculator All TT People All TT events
ABC Home VVV Home
CKAP GOLD MEDAL
Other Links

Please send your comments and suggestions to: Celia McInnis
Copyright © 1998-2011 Celia McInnis. All rights reserved. Links are welcomed.